sensor_id;sensor_type;location;lat;lon;timestamp;temperature;humidity
23259;DHT22;11798;51.528;7.240;2023-04-09T00:01:46;6.30;99.90
23259;DHT22;11798;51.528;7.240;2023-04-09T00:04:12;6.30;99.90
23259;DHT22;11798;51.528;7.240;2023-04-09T00:06:37;6.20;99.90
23259;DHT22;11798;51.528;7.240;2023-04-09T00:09:03;6.10;99.90
23259;DHT22;11798;51.528;7.240;2023-04-09T00:11:29;6.00;99.90
23259;DHT22;11798;51.528;7.240;2023-04-09T00:13:54;6.00;99.90
23259;DHT22;11798;51.528;7.240;2023-04-09T00:16:21;6.00;99.90
23259;DHT22;11798;51.528;7.240;2023-04-09T00:18:47;6.00;99.90
23259;DHT22;11798;51.528;7.240;2023-04-09T00:21:13;5.90;99.90
23259;DHT22;11798;51.528;7.240;2023-04-09T00:23:40;5.90;99.90
23259;DHT22;11798;51.528;7.240;2023-04-09T00:26:06;5.90;99.90
23259;DHT22;11798;51.528;7.240;2023-04-09T00:28:32;5.90;99.90
23259;DHT22;11798;51.528;7.240;2023-04-09T00:30:58;5.90;99.90
23259;DHT22;11798;51.528;7.240;2023-04-09T00:33:23;5.90;99.90
23259;DHT22;11798;51.528;7.240;2023-04-09T00:35:50;5.90;99.90
23259;DHT22;11798;51.528;7.240;2023-04-09T00:38:16;5.90;99.90
23259;DHT22;11798;51.528;7.240;2023-04-09T00:40:41;5.90;99.90
23259;DHT22;11798;51.528;7.240;2023-04-09T00:43:10;5.90;99.90
23259;DHT22;11798;51.528;7.240;2023-04-09T00:45:36;5.90;99.90
23259;DHT22;11798;51.528;7.240;2023-04-09T00:48:02;5.80;99.90
23259;DHT22;11798;51.528;7.240;2023-04-09T00:50:28;5.80;99.90
23259;DHT22;11798;51.528;7.240;2023-04-09T00:52:54;5.80;99.90
23259;DHT22;11798;51.528;7.240;2023-04-09T00:55:20;5.70;99.90
23259;DHT22;11798;51.528;7.240;2023-04-09T00:57:46;5.70;99.90
23259;DHT22;11798;51.528;7.240;2023-04-09T01:00:12;5.70;99.90
23259;DHT22;11798;51.528;7.240;2023-04-09T01:02:38;5.60;99.90
23259;DHT22;11798;51.528;7.240;2023-04-09T01:05:05;5.60;99.90
23259;DHT22;11798;51.528;7.240;2023-04-09T01:07:50;5.60;99.90
23259;DHT22;11798;51.528;7.240;2023-04-09T01:10:31;5.60;99.90
23259;DHT22;11798;51.528;7.240;2023-04-09T01:13:12;5.60;99.90
23259;DHT22;11798;51.528;7.240;2023-04-09T01:15:53;5.60;99.90
23259;DHT22;11798;51.528;7.240;2023-04-09T01:21:18;5.60;99.90
23259;DHT22;11798;51.528;7.240;2023-04-09T01:27:22;5.50;99.90
23259;DHT22;11798;51.528;7.240;2023-04-09T01:29:31;5.50;99.90
23259;DHT22;11798;51.528;7.240;2023-04-09T01:31:59;5.50;99.90
23259;DHT22;11798;51.528;7.240;2023-04-09T01:34:27;5.50;99.90
23259;DHT22;11798;51.528;7.240;2023-04-09T01:36:56;5.50;99.90
23259;DHT22;11798;51.528;7.240;2023-04-09T01:39:23;5.50;99.90
23259;DHT22;11798;51.528;7.240;2023-04-09T01:41:49;5.40;99.90
23259;DHT22;11798;51.528;7.240;2023-04-09T01:44:16;5.40;99.90
23259;DHT22;11798;51.528;7.240;2023-04-09T01:46:42;5.40;99.90
23259;DHT22;11798;51.528;7.240;2023-04-09T01:49:09;5.40;99.90
23259;DHT22;11798;51.528;7.240;2023-04-09T01:51:36;5.40;99.90
23259;DHT22;11798;51.528;7.240;2023-04-09T01:54:02;5.30;99.90
23259;DHT22;11798;51.528;7.240;2023-04-09T01:56:39;5.30;99.90
23259;DHT22;11798;51.528;7.240;2023-04-09T02:02:19;5.30;99.90
23259;DHT22;11798;51.528;7.240;2023-04-09T02:04:47;5.30;99.90
23259;DHT22;11798;51.528;7.240;2023-04-09T02:09:52;5.30;99.90
23259;DHT22;11798;51.528;7.240;2023-04-09T02:12:21;5.20;99.90
23259;DHT22;11798;51.528;7.240;2023-04-09T02:14:51;5.20;99.90
23259;DHT22;11798;51.528;7.240;2023-04-09T02:17:18;5.20;99.90
23259;DHT22;11798;51.528;7.240;2023-04-09T02:19:45;5.20;99.90
23259;DHT22;11798;51.528;7.240;2023-04-09T02:22:12;5.20;99.90
23259;DHT22;11798;51.528;7.240;2023-04-09T02:24:38;5.20;99.90
23259;DHT22;11798;51.528;7.240;2023-04-09T02:27:05;5.20;99.90
23259;DHT22;11798;51.528;7.240;2023-04-09T02:29:31;5.10;99.90
23259;DHT22;11798;51.528;7.240;2023-04-09T02:31:57;5.10;99.90
23259;DHT22;11798;51.528;7.240;2023-04-09T02:34:23;5.10;99.90
23259;DHT22;11798;51.528;7.240;2023-04-09T02:36:48;5.00;99.90
23259;DHT22;11798;51.528;7.240;2023-04-09T02:39:14;5.10;99.90
23259;DHT22;11798;51.528;7.240;2023-04-09T02:41:40;5.00;99.90
23259;DHT22;11798;51.528;7.240;2023-04-09T02:44:06;5.00;99.90
23259;DHT22;11798;51.528;7.240;2023-04-09T02:46:32;4.90;99.90
23259;DHT22;11798;51.528;7.240;2023-04-09T02:48:57;4.90;99.90
23259;DHT22;11798;51.528;7.240;2023-04-09T02:51:23;4.80;99.90
23259;DHT22;11798;51.528;7.240;2023-04-09T02:53:49;4.80;99.90
23259;DHT22;11798;51.528;7.240;2023-04-09T02:56:14;4.80;99.90
23259;DHT22;11798;51.528;7.240;2023-04-09T02:58:40;4.80;99.90
23259;DHT22;11798;51.528;7.240;2023-04-09T03:01:06;4.80;99.90
23259;DHT22;11798;51.528;7.240;2023-04-09T03:03:31;4.80;99.90
23259;DHT22;11798;51.528;7.240;2023-04-09T03:05:57;4.80;99.90
23259;DHT22;11798;51.528;7.240;2023-04-09T03:08:23;4.80;99.90
23259;DHT22;11798;51.528;7.240;2023-04-09T03:10:48;4.70;99.90
23259;DHT22;11798;51.528;7.240;2023-04-09T03:13:14;4.60;99.90
23259;DHT22;11798;51.528;7.240;2023-04-09T03:15:40;4.60;99.90
23259;DHT22;11798;51.528;7.240;2023-04-09T03:18:06;4.50;99.90
23259;DHT22;11798;51.528;7.240;2023-04-09T03:20:31;4.50;99.90
23259;DHT22;11798;51.528;7.240;2023-04-09T03:22:57;4.50;99.90
23259;DHT22;11798;51.528;7.240;2023-04-09T03:25:23;4.50;99.90
23259;DHT22;11798;51.528;7.240;2023-04-09T03:27:49;4.50;99.90
23259;DHT22;11798;51.528;7.240;2023-04-09T03:30:14;4.50;99.90
23259;DHT22;11798;51.528;7.240;2023-04-09T03:32:40;4.40;99.90
23259;DHT22;11798;51.528;7.240;2023-04-09T03:35:06;4.40;99.90
23259;DHT22;11798;51.528;7.240;2023-04-09T03:37:32;4.40;99.90
23259;DHT22;11798;51.528;7.240;2023-04-09T03:39:57;4.40;99.90
23259;DHT22;11798;51.528;7.240;2023-04-09T03:42:23;4.40;99.90
23259;DHT22;11798;51.528;7.240;2023-04-09T03:44:49;4.30;99.90
23259;DHT22;11798;51.528;7.240;2023-04-09T03:47:17;4.20;99.90
23259;DHT22;11798;51.528;7.240;2023-04-09T03:49:43;4.20;99.90
23259;DHT22;11798;51.528;7.240;2023-04-09T03:52:11;4.10;99.90
23259;DHT22;11798;51.528;7.240;2023-04-09T03:54:37;4.10;99.90
23259;DHT22;11798;51.528;7.240;2023-04-09T03:57:03;4.10;99.90
23259;DHT22;11798;51.528;7.240;2023-04-09T03:59:29;4.10;99.90
23259;DHT22;11798;51.528;7.240;2023-04-09T04:01:54;4.10;99.90
23259;DHT22;11798;51.528;7.240;2023-04-09T04:04:20;4.10;99.90
23259;DHT22;11798;51.528;7.240;2023-04-09T04:06:46;4.10;99.90
23259;DHT22;11798;51.528;7.240;2023-04-09T04:09:11;4.10;99.90
23259;DHT22;11798;51.528;7.240;2023-04-09T04:11:37;4.10;99.90
23259;DHT22;11798;51.528;7.240;2023-04-09T04:14:03;4.10;99.90
23259;DHT22;11798;51.528;7.240;2023-04-09T04:16:28;4.00;99.90
23259;DHT22;11798;51.528;7.240;2023-04-09T04:18:54;4.00;99.90
23259;DHT22;11798;51.528;7.240;2023-04-09T04:21:19;3.90;99.90
23259;DHT22;11798;51.528;7.240;2023-04-09T04:23:45;3.90;99.90
23259;DHT22;11798;51.528;7.240;2023-04-09T04:26:11;3.80;99.90
23259;DHT22;11798;51.528;7.240;2023-04-09T04:28:37;3.80;99.90
23259;DHT22;11798;51.528;7.240;2023-04-09T04:31:12;3.80;99.90
23259;DHT22;11798;51.528;7.240;2023-04-09T04:33:39;3.80;99.90
23259;DHT22;11798;51.528;7.240;2023-04-09T04:36:10;3.80;99.90
23259;DHT22;11798;51.528;7.240;2023-04-09T04:38:37;3.80;99.90
23259;DHT22;11798;51.528;7.240;2023-04-09T04:41:03;3.70;99.90
23259;DHT22;11798;51.528;7.240;2023-04-09T04:43:30;3.60;99.90
23259;DHT22;11798;51.528;7.240;2023-04-09T04:45:56;3.60;99.90
23259;DHT22;11798;51.528;7.240;2023-04-09T04:48:22;3.60;99.90
23259;DHT22;11798;51.528;7.240;2023-04-09T04:50:56;3.60;99.90
23259;DHT22;11798;51.528;7.240;2023-04-09T04:53:22;3.60;99.90
23259;DHT22;11798;51.528;7.240;2023-04-09T04:55:48;3.60;99.90
23259;DHT22;11798;51.528;7.240;2023-04-09T04:58:13;3.70;99.90
23259;DHT22;11798;51.528;7.240;2023-04-09T05:00:39;3.70;99.90
23259;DHT22;11798;51.528;7.240;2023-04-09T05:03:05;3.70;99.90
23259;DHT22;11798;51.528;7.240;2023-04-09T05:05:30;3.60;99.90
23259;DHT22;11798;51.528;7.240;2023-04-09T05:07:56;3.60;99.90
23259;DHT22;11798;51.528;7.240;2023-04-09T05:10:22;3.60;99.90
23259;DHT22;11798;51.528;7.240;2023-04-09T05:12:47;3.60;99.90
23259;DHT22;11798;51.528;7.240;2023-04-09T05:15:13;3.60;99.90
23259;DHT22;11798;51.528;7.240;2023-04-09T05:17:41;3.60;99.90
23259;DHT22;11798;51.528;7.240;2023-04-09T05:20:08;3.70;99.90
23259;DHT22;11798;51.528;7.240;2023-04-09T05:22:33;3.70;99.90
23259;DHT22;11798;51.528;7.240;2023-04-09T05:25:00;3.60;99.90
23259;DHT22;11798;51.528;7.240;2023-04-09T05:27:27;3.60;99.90
23259;DHT22;11798;51.528;7.240;2023-04-09T05:29:53;3.70;99.90
23259;DHT22;11798;51.528;7.240;2023-04-09T05:32:18;3.70;99.90
23259;DHT22;11798;51.528;7.240;2023-04-09T05:34:44;3.70;99.90
23259;DHT22;11798;51.528;7.240;2023-04-09T05:37:10;3.70;99.90
23259;DHT22;11798;51.528;7.240;2023-04-09T05:39:35;3.70;99.90
23259;DHT22;11798;51.528;7.240;2023-04-09T05:42:01;3.60;99.90
23259;DHT22;11798;51.528;7.240;2023-04-09T05:44:27;3.60;99.90
23259;DHT22;11798;51.528;7.240;2023-04-09T05:46:53;3.70;99.90
23259;DHT22;11798;51.528;7.240;2023-04-09T05:49:18;3.70;99.90
23259;DHT22;11798;51.528;7.240;2023-04-09T05:51:44;3.80;99.90
23259;DHT22;11798;51.528;7.240;2023-04-09T05:54:10;3.80;99.90
23259;DHT22;11798;51.528;7.240;2023-04-09T05:56:35;3.90;99.90
23259;DHT22;11798;51.528;7.240;2023-04-09T05:59:01;3.90;99.90
23259;DHT22;11798;51.528;7.240;2023-04-09T06:01:27;4.00;99.90
23259;DHT22;11798;51.528;7.240;2023-04-09T06:03:54;4.00;99.90
23259;DHT22;11798;51.528;7.240;2023-04-09T06:06:20;4.10;99.90
23259;DHT22;11798;51.528;7.240;2023-04-09T06:08:45;4.10;99.90
23259;DHT22;11798;51.528;7.240;2023-04-09T06:11:12;4.20;99.90
23259;DHT22;11798;51.528;7.240;2023-04-09T06:13:37;4.20;99.90
23259;DHT22;11798;51.528;7.240;2023-04-09T06:16:07;4.30;99.90
23259;DHT22;11798;51.528;7.240;2023-04-09T06:18:33;4.40;99.90
23259;DHT22;11798;51.528;7.240;2023-04-09T06:21:03;4.50;99.90
23259;DHT22;11798;51.528;7.240;2023-04-09T06:23:29;4.50;99.90
23259;DHT22;11798;51.528;7.240;2023-04-09T06:25:55;4.60;99.90
23259;DHT22;11798;51.528;7.240;2023-04-09T06:28:21;4.70;99.90
23259;DHT22;11798;51.528;7.240;2023-04-09T06:30:46;4.80;99.90
23259;DHT22;11798;51.528;7.240;2023-04-09T06:33:13;4.90;99.90
23259;DHT22;11798;51.528;7.240;2023-04-09T06:35:39;5.00;99.90
23259;DHT22;11798;51.528;7.240;2023-04-09T06:38:05;5.10;99.90
23259;DHT22;11798;51.528;7.240;2023-04-09T06:40:31;5.20;99.90
23259;DHT22;11798;51.528;7.240;2023-04-09T06:42:57;5.30;99.90
23259;DHT22;11798;51.528;7.240;2023-04-09T06:45:22;5.40;99.90
23259;DHT22;11798;51.528;7.240;2023-04-09T06:47:48;5.50;99.90
23259;DHT22;11798;51.528;7.240;2023-04-09T06:50:14;5.60;99.90
23259;DHT22;11798;51.528;7.240;2023-04-09T06:52:40;5.70;99.90
23259;DHT22;11798;51.528;7.240;2023-04-09T06:55:06;5.80;99.90
23259;DHT22;11798;51.528;7.240;2023-04-09T06:57:32;5.90;99.90
23259;DHT22;11798;51.528;7.240;2023-04-09T06:59:57;6.00;99.90
23259;DHT22;11798;51.528;7.240;2023-04-09T07:02:23;6.10;99.90
23259;DHT22;11798;51.528;7.240;2023-04-09T07:04:49;6.20;99.90
23259;DHT22;11798;51.528;7.240;2023-04-09T07:07:14;6.40;99.90
23259;DHT22;11798;51.528;7.240;2023-04-09T07:09:41;6.50;99.90
23259;DHT22;11798;51.528;7.240;2023-04-09T07:12:07;6.60;99.90
23259;DHT22;11798;51.528;7.240;2023-04-09T07:14:32;6.80;99.90
23259;DHT22;11798;51.528;7.240;2023-04-09T07:16:58;6.90;99.90
23259;DHT22;11798;51.528;7.240;2023-04-09T07:19:24;7.00;99.90
23259;DHT22;11798;51.528;7.240;2023-04-09T07:21:49;7.10;99.90
23259;DHT22;11798;51.528;7.240;2023-04-09T07:24:15;7.20;99.90
23259;DHT22;11798;51.528;7.240;2023-04-09T07:26:41;7.40;99.90
23259;DHT22;11798;51.528;7.240;2023-04-09T07:29:07;7.50;99.90
23259;DHT22;11798;51.528;7.240;2023-04-09T07:31:32;7.60;99.90
23259;DHT22;11798;51.528;7.240;2023-04-09T07:33:58;7.80;99.90
23259;DHT22;11798;51.528;7.240;2023-04-09T07:36:24;7.90;99.90
23259;DHT22;11798;51.528;7.240;2023-04-09T07:38:50;8.00;99.90
23259;DHT22;11798;51.528;7.240;2023-04-09T07:41:15;8.10;99.90
23259;DHT22;11798;51.528;7.240;2023-04-09T07:43:41;8.20;99.90
23259;DHT22;11798;51.528;7.240;2023-04-09T07:46:07;8.30;99.90
23259;DHT22;11798;51.528;7.240;2023-04-09T07:48:33;8.40;99.90
23259;DHT22;11798;51.528;7.240;2023-04-09T07:50:58;8.50;99.90
23259;DHT22;11798;51.528;7.240;2023-04-09T07:53:24;8.60;99.90
23259;DHT22;11798;51.528;7.240;2023-04-09T07:55:50;8.80;99.90
23259;DHT22;11798;51.528;7.240;2023-04-09T07:58:19;8.80;99.90
23259;DHT22;11798;51.528;7.240;2023-04-09T08:00:45;9.00;99.90
23259;DHT22;11798;51.528;7.240;2023-04-09T08:03:10;9.00;99.90
23259;DHT22;11798;51.528;7.240;2023-04-09T08:05:36;9.10;99.90
23259;DHT22;11798;51.528;7.240;2023-04-09T08:08:04;9.20;99.90
23259;DHT22;11798;51.528;7.240;2023-04-09T08:10:30;9.30;99.90
23259;DHT22;11798;51.528;7.240;2023-04-09T08:12:55;9.40;99.90
23259;DHT22;11798;51.528;7.240;2023-04-09T08:15:21;9.50;99.90
23259;DHT22;11798;51.528;7.240;2023-04-09T08:17:46;9.60;99.90
23259;DHT22;11798;51.528;7.240;2023-04-09T08:20:12;9.70;99.90
23259;DHT22;11798;51.528;7.240;2023-04-09T08:22:38;9.80;99.90
23259;DHT22;11798;51.528;7.240;2023-04-09T08:25:05;9.90;99.90
23259;DHT22;11798;51.528;7.240;2023-04-09T08:27:31;9.90;99.90
23259;DHT22;11798;51.528;7.240;2023-04-09T08:29:58;10.00;99.90
23259;DHT22;11798;51.528;7.240;2023-04-09T08:32:27;10.10;99.90
23259;DHT22;11798;51.528;7.240;2023-04-09T08:34:52;10.30;99.90
23259;DHT22;11798;51.528;7.240;2023-04-09T08:37:18;10.30;99.90
23259;DHT22;11798;51.528;7.240;2023-04-09T08:39:43;10.40;99.90
23259;DHT22;11798;51.528;7.240;2023-04-09T08:42:10;10.30;99.90
23259;DHT22;11798;51.528;7.240;2023-04-09T08:44:37;10.50;99.90
23259;DHT22;11798;51.528;7.240;2023-04-09T08:47:09;10.50;99.90
23259;DHT22;11798;51.528;7.240;2023-04-09T08:49:38;10.60;99.90
23259;DHT22;11798;51.528;7.240;2023-04-09T08:52:05;10.70;99.90
23259;DHT22;11798;51.528;7.240;2023-04-09T08:54:31;10.80;99.90
23259;DHT22;11798;51.528;7.240;2023-04-09T08:56:57;10.90;99.90
23259;DHT22;11798;51.528;7.240;2023-04-09T08:59:23;11.00;99.90
23259;DHT22;11798;51.528;7.240;2023-04-09T09:01:49;11.10;99.90
23259;DHT22;11798;51.528;7.240;2023-04-09T09:04:46;11.20;99.90
23259;DHT22;11798;51.528;7.240;2023-04-09T09:07:12;11.30;99.90
23259;DHT22;11798;51.528;7.240;2023-04-09T09:09:49;11.30;99.90
23259;DHT22;11798;51.528;7.240;2023-04-09T09:12:36;11.40;99.90
23259;DHT22;11798;51.528;7.240;2023-04-09T09:15:24;11.40;99.90
23259;DHT22;11798;51.528;7.240;2023-04-09T09:17:56;11.50;99.90
23259;DHT22;11798;51.528;7.240;2023-04-09T09:20:23;11.50;99.90
23259;DHT22;11798;51.528;7.240;2023-04-09T09:22:51;11.60;99.90
23259;DHT22;11798;51.528;7.240;2023-04-09T09:25:17;11.70;99.90
23259;DHT22;11798;51.528;7.240;2023-04-09T09:27:43;11.70;99.90
23259;DHT22;11798;51.528;7.240;2023-04-09T09:30:10;11.80;99.90
23259;DHT22;11798;51.528;7.240;2023-04-09T09:32:44;11.90;99.90
23259;DHT22;11798;51.528;7.240;2023-04-09T09:35:10;12.00;99.90
23259;DHT22;11798;51.528;7.240;2023-04-09T09:37:36;12.00;99.90
23259;DHT22;11798;51.528;7.240;2023-04-09T09:40:02;12.10;99.90
23259;DHT22;11798;51.528;7.240;2023-04-09T09:42:31;12.10;99.90
23259;DHT22;11798;51.528;7.240;2023-04-09T09:44:57;12.20;99.90
23259;DHT22;11798;51.528;7.240;2023-04-09T09:47:23;12.20;99.90
23259;DHT22;11798;51.528;7.240;2023-04-09T09:49:51;12.30;99.90
23259;DHT22;11798;51.528;7.240;2023-04-09T09:52:23;12.40;99.90
23259;DHT22;11798;51.528;7.240;2023-04-09T09:54:51;12.40;99.90
23259;DHT22;11798;51.528;7.240;2023-04-09T09:57:19;12.60;99.90
23259;DHT22;11798;51.528;7.240;2023-04-09T09:59:55;12.60;99.90
23259;DHT22;11798;51.528;7.240;2023-04-09T10:02:24;12.70;99.90
23259;DHT22;11798;51.528;7.240;2023-04-09T10:04:55;12.70;99.90
23259;DHT22;11798;51.528;7.240;2023-04-09T10:07:25;12.90;99.90
23259;DHT22;11798;51.528;7.240;2023-04-09T10:09:52;13.00;99.90
23259;DHT22;11798;51.528;7.240;2023-04-09T10:12:20;12.90;99.90
23259;DHT22;11798;51.528;7.240;2023-04-09T10:14:50;12.90;99.90
23259;DHT22;11798;51.528;7.240;2023-04-09T10:17:18;13.00;99.90
23259;DHT22;11798;51.528;7.240;2023-04-09T10:19:53;13.10;99.90
23259;DHT22;11798;51.528;7.240;2023-04-09T10:22:24;13.10;99.90
23259;DHT22;11798;51.528;7.240;2023-04-09T10:24:51;13.20;99.90
23259;DHT22;11798;51.528;7.240;2023-04-09T10:27:17;13.30;99.90
23259;DHT22;11798;51.528;7.240;2023-04-09T10:32:10;13.20;99.90
23259;DHT22;11798;51.528;7.240;2023-04-09T10:34:42;13.30;99.90
23259;DHT22;11798;51.528;7.240;2023-04-09T10:37:14;13.60;99.90
23259;DHT22;11798;51.528;7.240;2023-04-09T10:39:45;13.60;99.90
23259;DHT22;11798;51.528;7.240;2023-04-09T10:42:14;13.60;99.90
23259;DHT22;11798;51.528;7.240;2023-04-09T10:44:42;13.40;99.90
23259;DHT22;11798;51.528;7.240;2023-04-09T10:47:08;13.40;99.90
23259;DHT22;11798;51.528;7.240;2023-04-09T10:49:39;13.50;99.90
23259;DHT22;11798;51.528;7.240;2023-04-09T10:57:18;13.40;99.90
23259;DHT22;11798;51.528;7.240;2023-04-09T10:59:54;13.40;99.90
23259;DHT22;11798;51.528;7.240;2023-04-09T11:08:02;13.70;99.90
23259;DHT22;11798;51.528;7.240;2023-04-09T11:10:28;13.80;99.90
23259;DHT22;11798;51.528;7.240;2023-04-09T11:12:53;13.70;99.90
23259;DHT22;11798;51.528;7.240;2023-04-09T11:15:19;13.70;99.90
23259;DHT22;11798;51.528;7.240;2023-04-09T11:17:46;13.60;99.90
23259;DHT22;11798;51.528;7.240;2023-04-09T11:20:18;13.60;99.90
23259;DHT22;11798;51.528;7.240;2023-04-09T11:22:44;13.40;99.90
23259;DHT22;11798;51.528;7.240;2023-04-09T11:25:09;13.70;99.90
23259;DHT22;11798;51.528;7.240;2023-04-09T11:27:42;13.80;99.90
23259;DHT22;11798;51.528;7.240;2023-04-09T11:30:08;13.90;99.90
23259;DHT22;11798;51.528;7.240;2023-04-09T11:32:34;14.00;99.90
23259;DHT22;11798;51.528;7.240;2023-04-09T11:35:00;14.20;99.90
23259;DHT22;11798;51.528;7.240;2023-04-09T11:37:26;14.60;99.90
23259;DHT22;11798;51.528;7.240;2023-04-09T11:39:53;14.60;99.90
23259;DHT22;11798;51.528;7.240;2023-04-09T11:42:19;14.50;99.90
23259;DHT22;11798;51.528;7.240;2023-04-09T11:48:01;14.70;99.90
23259;DHT22;11798;51.528;7.240;2023-04-09T11:50:27;14.80;99.90
23259;DHT22;11798;51.528;7.240;2023-04-09T11:52:53;15.00;99.90
23259;DHT22;11798;51.528;7.240;2023-04-09T11:55:23;15.00;99.90
23259;DHT22;11798;51.528;7.240;2023-04-09T11:57:51;15.00;99.90
23259;DHT22;11798;51.528;7.240;2023-04-09T12:00:18;14.90;99.90
23259;DHT22;11798;51.528;7.240;2023-04-09T12:02:48;15.00;99.90
23259;DHT22;11798;51.528;7.240;2023-04-09T12:05:24;15.00;99.90
23259;DHT22;11798;51.528;7.240;2023-04-09T12:07:51;15.00;99.90
23259;DHT22;11798;51.528;7.240;2023-04-09T12:10:17;14.80;99.90
23259;DHT22;11798;51.528;7.240;2023-04-09T12:12:45;14.80;99.90
23259;DHT22;11798;51.528;7.240;2023-04-09T12:15:24;14.90;99.90
23259;DHT22;11798;51.528;7.240;2023-04-09T12:17:52;14.90;99.90
23259;DHT22;11798;51.528;7.240;2023-04-09T12:20:35;14.80;99.90
23259;DHT22;11798;51.528;7.240;2023-04-09T12:23:02;14.80;99.90
23259;DHT22;11798;51.528;7.240;2023-04-09T12:25:30;15.00;99.90
23259;DHT22;11798;51.528;7.240;2023-04-09T12:27:56;15.10;99.90
23259;DHT22;11798;51.528;7.240;2023-04-09T12:30:22;15.00;99.90
23259;DHT22;11798;51.528;7.240;2023-04-09T12:32:48;15.00;99.90
23259;DHT22;11798;51.528;7.240;2023-04-09T12:35:14;15.10;99.90
23259;DHT22;11798;51.528;7.240;2023-04-09T12:37:41;15.10;99.90
23259;DHT22;11798;51.528;7.240;2023-04-09T12:40:07;15.10;99.90
23259;DHT22;11798;51.528;7.240;2023-04-09T12:42:32;15.30;99.90
23259;DHT22;11798;51.528;7.240;2023-04-09T12:44:58;15.30;99.90
23259;DHT22;11798;51.528;7.240;2023-04-09T12:47:24;15.00;99.90
23259;DHT22;11798;51.528;7.240;2023-04-09T12:49:49;14.90;99.90
23259;DHT22;11798;51.528;7.240;2023-04-09T12:52:15;15.00;99.90
23259;DHT22;11798;51.528;7.240;2023-04-09T12:54:42;15.00;99.90
23259;DHT22;11798;51.528;7.240;2023-04-09T12:57:09;14.90;99.90
23259;DHT22;11798;51.528;7.240;2023-04-09T12:59:35;15.00;99.90
23259;DHT22;11798;51.528;7.240;2023-04-09T13:02:00;15.00;99.90
23259;DHT22;11798;51.528;7.240;2023-04-09T13:04:26;14.80;99.90
23259;DHT22;11798;51.528;7.240;2023-04-09T13:06:52;14.90;99.90
23259;DHT22;11798;51.528;7.240;2023-04-09T13:09:17;15.20;99.90
23259;DHT22;11798;51.528;7.240;2023-04-09T13:11:43;15.30;99.90
23259;DHT22;11798;51.528;7.240;2023-04-09T13:14:08;15.30;99.90
23259;DHT22;11798;51.528;7.240;2023-04-09T13:16:41;15.20;99.90
23259;DHT22;11798;51.528;7.240;2023-04-09T13:19:07;15.20;99.90
23259;DHT22;11798;51.528;7.240;2023-04-09T13:21:34;15.10;99.90
23259;DHT22;11798;51.528;7.240;2023-04-09T13:23:59;15.20;99.90
23259;DHT22;11798;51.528;7.240;2023-04-09T13:26:25;15.30;99.90
23259;DHT22;11798;51.528;7.240;2023-04-09T13:28:51;15.20;99.90
23259;DHT22;11798;51.528;7.240;2023-04-09T13:31:17;15.20;99.90
23259;DHT22;11798;51.528;7.240;2023-04-09T13:33:43;15.20;99.90
23259;DHT22;11798;51.528;7.240;2023-04-09T13:36:09;15.10;99.90
23259;DHT22;11798;51.528;7.240;2023-04-09T13:38:35;15.00;99.90
23259;DHT22;11798;51.528;7.240;2023-04-09T13:41:00;15.10;99.90
23259;DHT22;11798;51.528;7.240;2023-04-09T13:43:26;15.20;99.90
23259;DHT22;11798;51.528;7.240;2023-04-09T13:45:54;15.10;99.90
23259;DHT22;11798;51.528;7.240;2023-04-09T13:48:20;15.20;99.90
23259;DHT22;11798;51.528;7.240;2023-04-09T13:50:46;15.30;99.90
23259;DHT22;11798;51.528;7.240;2023-04-09T13:53:12;15.30;99.90
23259;DHT22;11798;51.528;7.240;2023-04-09T13:55:38;15.30;99.90
23259;DHT22;11798;51.528;7.240;2023-04-09T13:58:04;15.30;99.90
23259;DHT22;11798;51.528;7.240;2023-04-09T14:00:30;15.30;99.90
23259;DHT22;11798;51.528;7.240;2023-04-09T14:02:56;15.20;99.90
23259;DHT22;11798;51.528;7.240;2023-04-09T14:05:22;15.20;99.90
23259;DHT22;11798;51.528;7.240;2023-04-09T14:07:48;15.10;99.90
23259;DHT22;11798;51.528;7.240;2023-04-09T14:10:14;15.10;99.90
23259;DHT22;11798;51.528;7.240;2023-04-09T14:12:40;15.20;99.90
23259;DHT22;11798;51.528;7.240;2023-04-09T14:15:06;15.40;99.90
23259;DHT22;11798;51.528;7.240;2023-04-09T14:17:32;15.50;99.90
23259;DHT22;11798;51.528;7.240;2023-04-09T14:19:57;15.40;99.90
23259;DHT22;11798;51.528;7.240;2023-04-09T14:22:25;15.40;99.90
23259;DHT22;11798;51.528;7.240;2023-04-09T14:24:50;15.20;99.90
23259;DHT22;11798;51.528;7.240;2023-04-09T14:27:16;15.30;99.90
23259;DHT22;11798;51.528;7.240;2023-04-09T14:29:42;15.30;99.90
23259;DHT22;11798;51.528;7.240;2023-04-09T14:32:07;15.30;99.90
23259;DHT22;11798;51.528;7.240;2023-04-09T14:34:33;15.40;99.90
23259;DHT22;11798;51.528;7.240;2023-04-09T14:36:59;15.60;99.90
23259;DHT22;11798;51.528;7.240;2023-04-09T14:39:24;15.80;99.90
23259;DHT22;11798;51.528;7.240;2023-04-09T14:41:50;15.80;99.90
23259;DHT22;11798;51.528;7.240;2023-04-09T14:44:16;15.70;99.90
23259;DHT22;11798;51.528;7.240;2023-04-09T14:46:42;15.80;99.90
23259;DHT22;11798;51.528;7.240;2023-04-09T14:49:08;16.00;99.90
23259;DHT22;11798;51.528;7.240;2023-04-09T14:51:34;16.30;99.90
23259;DHT22;11798;51.528;7.240;2023-04-09T14:53:59;16.40;99.90
23259;DHT22;11798;51.528;7.240;2023-04-09T14:56:26;16.40;99.90
23259;DHT22;11798;51.528;7.240;2023-04-09T14:58:52;16.60;99.90
23259;DHT22;11798;51.528;7.240;2023-04-09T15:01:18;16.60;99.90
23259;DHT22;11798;51.528;7.240;2023-04-09T15:03:44;16.90;99.90
23259;DHT22;11798;51.528;7.240;2023-04-09T15:06:12;16.90;99.90
23259;DHT22;11798;51.528;7.240;2023-04-09T15:08:38;16.90;99.90
23259;DHT22;11798;51.528;7.240;2023-04-09T15:11:07;17.00;99.90
23259;DHT22;11798;51.528;7.240;2023-04-09T15:13:34;17.00;99.90
23259;DHT22;11798;51.528;7.240;2023-04-09T15:15:59;17.00;99.90
23259;DHT22;11798;51.528;7.240;2023-04-09T15:18:25;17.20;99.90
23259;DHT22;11798;51.528;7.240;2023-04-09T15:20:50;16.90;99.90
23259;DHT22;11798;51.528;7.240;2023-04-09T15:23:16;16.90;99.90
23259;DHT22;11798;51.528;7.240;2023-04-09T15:25:42;17.00;99.90
23259;DHT22;11798;51.528;7.240;2023-04-09T15:28:07;17.10;99.90
23259;DHT22;11798;51.528;7.240;2023-04-09T15:30:33;17.30;99.90
23259;DHT22;11798;51.528;7.240;2023-04-09T15:33:00;17.40;99.90
23259;DHT22;11798;51.528;7.240;2023-04-09T15:35:25;17.40;99.90
23259;DHT22;11798;51.528;7.240;2023-04-09T15:37:54;17.50;99.90
23259;DHT22;11798;51.528;7.240;2023-04-09T15:40:21;17.70;99.90
23259;DHT22;11798;51.528;7.240;2023-04-09T15:42:47;18.00;99.90
23259;DHT22;11798;51.528;7.240;2023-04-09T15:45:16;18.10;99.90
23259;DHT22;11798;51.528;7.240;2023-04-09T15:47:45;18.60;99.90
23259;DHT22;11798;51.528;7.240;2023-04-09T15:50:11;18.70;99.90
23259;DHT22;11798;51.528;7.240;2023-04-09T15:52:37;18.60;99.90
23259;DHT22;11798;51.528;7.240;2023-04-09T15:55:03;18.60;99.90
23259;DHT22;11798;51.528;7.240;2023-04-09T15:57:29;18.60;99.90
23259;DHT22;11798;51.528;7.240;2023-04-09T15:59:54;19.00;99.90
23259;DHT22;11798;51.528;7.240;2023-04-09T16:02:20;19.50;99.90
23259;DHT22;11798;51.528;7.240;2023-04-09T16:04:46;20.20;99.90
23259;DHT22;11798;51.528;7.240;2023-04-09T16:07:15;20.10;99.90